Woodgate, New York
Current Conditions -  °F | °C
As of 7:53 PM on Wednesday 26 Nov 2014 (Local Time) from KRME Reporting Station
Light Snow Light Snow  
Wind Chill: 20°   Ceiling: 1500
Heat Index: 29°   Visibility: 1.2mi
Dew Point: 27°   Wind: 9mph
Humidity: 92%   Direction: 330°NNW
Pressure: 30.03"   Gusts: NA
Location:  43.52°N, 75.16°W
Report Text: KRME 270053Z 33008KT 1 1/4SM -SN BR OVC015 M02/M03 A3003 RMK AO2 SLP172 P0001 T10171028
Loading
Personal Weather Stations






























Interactive Weather Map New forecast layout! Learn more

10-Day Weather Forecast

Advertisements
Track Severe Weather on mobile